sensor_id;sensor_type;location;lat;lon;timestamp;pressure;altitude;pressure_sealevel;temperature;humidity
66801;BME280;53703;50.326;19.122;2023-04-24T00:00:37;97844.70;;;17.39;48.31
66801;BME280;53703;50.326;19.122;2023-04-24T00:03:33;97842.16;;;17.43;48.26
66801;BME280;53703;50.326;19.122;2023-04-24T00:06:27;97838.85;;;17.39;48.21
66801;BME280;53703;50.326;19.122;2023-04-24T00:09:25;97837.34;;;17.38;48.24
66801;BME280;53703;50.326;19.122;2023-04-24T00:12:19;97837.18;;;17.38;48.21
66801;BME280;53703;50.326;19.122;2023-04-24T00:15:13;97839.58;;;17.40;48.06
66801;BME280;53703;50.326;19.122;2023-04-24T00:18:08;97835.46;;;17.39;47.93
66801;BME280;53703;50.326;19.122;2023-04-24T00:21:02;97838.86;;;17.40;47.80
66801;BME280;53703;50.326;19.122;2023-04-24T00:23:56;97835.07;;;17.39;47.81
66801;BME280;53703;50.326;19.122;2023-04-24T00:26:50;97829.59;;;17.33;47.79
66801;BME280;53703;50.326;19.122;2023-04-24T00:29:44;97831.33;;;17.33;47.70
66801;BME280;53703;50.326;19.122;2023-04-24T00:32:38;97827.73;;;17.34;47.66
66801;BME280;53703;50.326;19.122;2023-04-24T00:35:31;97821.59;;;17.31;47.75
66801;BME280;53703;50.326;19.122;2023-04-24T00:38:25;97819.23;;;17.31;47.64
66801;BME280;53703;50.326;19.122;2023-04-24T00:41:19;97812.40;;;17.28;47.65
66801;BME280;53703;50.326;19.122;2023-04-24T00:44:13;97803.02;;;17.28;47.62
66801;BME280;53703;50.326;19.122;2023-04-24T00:47:07;97800.35;;;17.28;47.51
66801;BME280;53703;50.326;19.122;2023-04-24T00:50:02;97799.69;;;17.22;47.47
66801;BME280;53703;50.326;19.122;2023-04-24T00:52:56;97796.15;;;17.26;47.38
66801;BME280;53703;50.326;19.122;2023-04-24T00:55:50;97798.92;;;17.28;47.18
66801;BME280;53703;50.326;19.122;2023-04-24T00:58:45;97795.13;;;17.26;47.11
66801;BME280;53703;50.326;19.122;2023-04-24T01:01:39;97793.08;;;17.26;47.06
66801;BME280;53703;50.326;19.122;2023-04-24T01:04:34;97787.75;;;17.24;47.02
66801;BME280;53703;50.326;19.122;2023-04-24T01:07:28;97791.02;;;17.20;46.98
66801;BME280;53703;50.326;19.122;2023-04-24T01:10:23;97785.63;;;17.20;46.98
66801;BME280;53703;50.326;19.122;2023-04-24T01:13:17;97786.73;;;17.15;47.02
66801;BME280;53703;50.326;19.122;2023-04-24T01:16:11;97786.27;;;17.17;47.04
66801;BME280;53703;50.326;19.122;2023-04-24T01:19:05;97781.24;;;17.17;46.97
66801;BME280;53703;50.326;19.122;2023-04-24T01:22:03;97784.80;;;17.13;47.06
66801;BME280;53703;50.326;19.122;2023-04-24T01:24:57;97783.67;;;17.17;46.89
66801;BME280;53703;50.326;19.122;2023-04-24T01:27:34;97780.52;;;17.16;46.87
66801;BME280;53703;50.326;19.122;2023-04-24T01:30:30;97777.61;;;17.12;46.92
66801;BME280;53703;50.326;19.122;2023-04-24T01:33:25;97776.38;;;17.14;46.81
66801;BME280;53703;50.326;19.122;2023-04-24T01:36:19;97771.78;;;17.12;46.91
66801;BME280;53703;50.326;19.122;2023-04-24T01:39:17;97768.30;;;17.16;46.68
66801;BME280;53703;50.326;19.122;2023-04-24T01:42:13;97769.32;;;17.11;46.88
66801;BME280;53703;50.326;19.122;2023-04-24T01:45:11;97765.72;;;17.12;46.72
66801;BME280;53703;50.326;19.122;2023-04-24T01:47:51;97767.00;;;17.09;46.69
66801;BME280;53703;50.326;19.122;2023-04-24T01:50:45;97758.23;;;17.08;46.58
66801;BME280;53703;50.326;19.122;2023-04-24T01:53:39;97757.09;;;17.06;46.58
66801;BME280;53703;50.326;19.122;2023-04-24T01:56:34;97752.70;;;17.03;46.55
66801;BME280;53703;50.326;19.122;2023-04-24T01:59:29;97753.77;;;16.99;46.60
66801;BME280;53703;50.326;19.122;2023-04-24T02:02:23;97747.89;;;16.96;46.58
66801;BME280;53703;50.326;19.122;2023-04-24T02:05:20;97746.66;;;17.05;46.28
66801;BME280;53703;50.326;19.122;2023-04-24T02:08:14;97745.14;;;17.00;46.26
66801;BME280;53703;50.326;19.122;2023-04-24T02:11:07;97746.23;;;16.95;46.37
66801;BME280;53703;50.326;19.122;2023-04-24T02:14:01;97744.66;;;16.95;46.28
66801;BME280;53703;50.326;19.122;2023-04-24T02:16:55;97741.59;;;16.91;46.41
66801;BME280;53703;50.326;19.122;2023-04-24T02:19:49;97738.73;;;16.86;46.43
66801;BME280;53703;50.326;19.122;2023-04-24T02:22:43;97737.86;;;16.86;46.41
66801;BME280;53703;50.326;19.122;2023-04-24T02:25:37;97733.41;;;16.88;46.30
66801;BME280;53703;50.326;19.122;2023-04-24T02:28:31;97731.89;;;16.90;46.17
66801;BME280;53703;50.326;19.122;2023-04-24T02:31:25;97730.33;;;16.87;46.08
66801;BME280;53703;50.326;19.122;2023-04-24T02:34:19;97727.55;;;16.85;46.12
66801;BME280;53703;50.326;19.122;2023-04-24T02:37:13;97722.52;;;16.83;46.06
66801;BME280;53703;50.326;19.122;2023-04-24T02:40:09;97721.96;;;16.82;46.14
66801;BME280;53703;50.326;19.122;2023-04-24T02:43:03;97725.30;;;16.83;46.04
66801;BME280;53703;50.326;19.122;2023-04-24T02:45:57;97721.08;;;16.81;46.05
66801;BME280;53703;50.326;19.122;2023-04-24T02:48:51;97722.94;;;16.79;45.95
66801;BME280;53703;50.326;19.122;2023-04-24T02:51:45;97722.60;;;16.74;46.03
66801;BME280;53703;50.326;19.122;2023-04-24T02:54:38;97721.00;;;16.72;45.97
66801;BME280;53703;50.326;19.122;2023-04-24T02:57:32;97718.55;;;16.77;45.78
66801;BME280;53703;50.326;19.122;2023-04-24T03:00:26;97712.52;;;16.73;45.80
66801;BME280;53703;50.326;19.122;2023-04-24T03:03:20;97714.45;;;16.76;45.64
66801;BME280;53703;50.326;19.122;2023-04-24T03:06:14;97717.82;;;16.75;45.69
66801;BME280;53703;50.326;19.122;2023-04-24T03:09:07;97716.16;;;16.70;45.67
66801;BME280;53703;50.326;19.122;2023-04-24T03:12:01;97714.95;;;16.69;45.62
66801;BME280;53703;50.326;19.122;2023-04-24T03:14:55;97715.81;;;16.69;45.60
66801;BME280;53703;50.326;19.122;2023-04-24T03:17:49;97713.21;;;16.64;45.51
66801;BME280;53703;50.326;19.122;2023-04-24T03:20:46;97712.14;;;16.66;45.51
66801;BME280;53703;50.326;19.122;2023-04-24T03:23:40;97711.11;;;16.62;45.47
66801;BME280;53703;50.326;19.122;2023-04-24T03:26:33;97711.66;;;16.57;45.54
66801;BME280;53703;50.326;19.122;2023-04-24T03:29:27;97712.79;;;16.59;45.58
66801;BME280;53703;50.326;19.122;2023-04-24T03:32:21;97709.81;;;16.59;45.55
66801;BME280;53703;50.326;19.122;2023-04-24T03:35:15;97709.06;;;16.58;45.56
66801;BME280;53703;50.326;19.122;2023-04-24T03:38:09;97710.60;;;16.56;45.46
66801;BME280;53703;50.326;19.122;2023-04-24T03:41:03;97707.49;;;16.50;45.53
66801;BME280;53703;50.326;19.122;2023-04-24T03:43:57;97713.14;;;16.54;45.48
66801;BME280;53703;50.326;19.122;2023-04-24T03:46:51;97707.90;;;16.54;45.46
66801;BME280;53703;50.326;19.122;2023-04-24T03:49:35;97708.20;;;16.51;45.54
66801;BME280;53703;50.326;19.122;2023-04-24T03:52:29;97712.30;;;16.55;45.44
66801;BME280;53703;50.326;19.122;2023-04-24T03:55:22;97712.11;;;16.53;45.53
66801;BME280;53703;50.326;19.122;2023-04-24T03:58:16;97716.30;;;16.54;45.53
66801;BME280;53703;50.326;19.122;2023-04-24T04:01:10;97714.36;;;16.55;45.51
66801;BME280;53703;50.326;19.122;2023-04-24T04:04:04;97715.98;;;16.58;45.49
66801;BME280;53703;50.326;19.122;2023-04-24T04:06:58;97712.75;;;16.57;45.49
66801;BME280;53703;50.326;19.122;2023-04-24T04:09:53;97718.56;;;16.61;45.50
66801;BME280;53703;50.326;19.122;2023-04-24T04:12:47;97716.09;;;16.63;45.55
66801;BME280;53703;50.326;19.122;2023-04-24T04:15:42;97715.24;;;16.59;45.59
66801;BME280;53703;50.326;19.122;2023-04-24T04:18:36;97714.52;;;16.59;45.64
66801;BME280;53703;50.326;19.122;2023-04-24T04:21:29;97716.60;;;16.68;45.48
66801;BME280;53703;50.326;19.122;2023-04-24T04:24:24;97717.57;;;16.66;45.58
66801;BME280;53703;50.326;19.122;2023-04-24T04:27:19;97715.05;;;16.66;45.63
66801;BME280;53703;50.326;19.122;2023-04-24T04:30:14;97713.41;;;16.67;45.71
66801;BME280;53703;50.326;19.122;2023-04-24T04:33:08;97711.20;;;16.70;45.61
66801;BME280;53703;50.326;19.122;2023-04-24T04:36:03;97708.13;;;16.66;45.90
66801;BME280;53703;50.326;19.122;2023-04-24T04:38:56;97708.14;;;16.71;45.72
66801;BME280;53703;50.326;19.122;2023-04-24T04:41:51;97711.42;;;16.69;45.75
66801;BME280;53703;50.326;19.122;2023-04-24T04:44:45;97710.92;;;16.73;45.63
66801;BME280;53703;50.326;19.122;2023-04-24T04:47:39;97713.47;;;16.78;45.67
66801;BME280;53703;50.326;19.122;2023-04-24T04:50:32;97713.77;;;16.85;45.67
66801;BME280;53703;50.326;19.122;2023-04-24T04:53:26;97710.53;;;16.89;45.90
66801;BME280;53703;50.326;19.122;2023-04-24T04:56:20;97712.27;;;16.85;45.86
66801;BME280;53703;50.326;19.122;2023-04-24T04:59:14;97708.73;;;16.90;45.92
66801;BME280;53703;50.326;19.122;2023-04-24T05:02:07;97710.18;;;16.92;45.65
66801;BME280;53703;50.326;19.122;2023-04-24T05:05:02;97708.81;;;16.90;45.51
66801;BME280;53703;50.326;19.122;2023-04-24T05:07:56;97709.55;;;16.92;45.83
66801;BME280;53703;50.326;19.122;2023-04-24T05:10:50;97710.94;;;16.99;46.54
66801;BME280;53703;50.326;19.122;2023-04-24T05:13:44;97708.45;;;17.13;45.50
66801;BME280;53703;50.326;19.122;2023-04-24T05:16:38;97713.66;;;17.13;45.08
66801;BME280;53703;50.326;19.122;2023-04-24T05:19:37;97707.83;;;17.17;44.55
66801;BME280;53703;50.326;19.122;2023-04-24T05:22:31;97708.52;;;17.21;44.40
66801;BME280;53703;50.326;19.122;2023-04-24T05:25:25;97705.95;;;17.23;43.98
66801;BME280;53703;50.326;19.122;2023-04-24T05:28:18;97707.16;;;17.30;43.52
66801;BME280;53703;50.326;19.122;2023-04-24T05:31:13;97703.35;;;17.32;42.90
66801;BME280;53703;50.326;19.122;2023-04-24T05:34:06;97704.23;;;17.14;42.75
66801;BME280;53703;50.326;19.122;2023-04-24T05:37:00;97705.55;;;17.09;43.55
66801;BME280;53703;50.326;19.122;2023-04-24T05:39:54;97702.02;;;17.28;43.15
66801;BME280;53703;50.326;19.122;2023-04-24T05:42:48;97698.13;;;17.31;43.16
66801;BME280;53703;50.326;19.122;2023-04-24T05:45:41;97694.55;;;17.38;42.95
66801;BME280;53703;50.326;19.122;2023-04-24T05:48:35;97699.38;;;17.40;42.93
66801;BME280;53703;50.326;19.122;2023-04-24T05:51:29;97699.52;;;17.44;42.67
66801;BME280;53703;50.326;19.122;2023-04-24T05:54:23;97699.91;;;17.48;42.65
66801;BME280;53703;50.326;19.122;2023-04-24T05:57:17;97698.55;;;17.57;42.56
66801;BME280;53703;50.326;19.122;2023-04-24T06:00:14;97693.09;;;17.81;41.52
66801;BME280;53703;50.326;19.122;2023-04-24T06:03:08;97691.23;;;17.42;40.30
66801;BME280;53703;50.326;19.122;2023-04-24T06:06:02;97688.23;;;17.24;40.79
66801;BME280;53703;50.326;19.122;2023-04-24T06:08:56;97687.01;;;17.71;40.32
66801;BME280;53703;50.326;19.122;2023-04-24T06:11:51;97686.48;;;17.61;42.04
66801;BME280;53703;50.326;19.122;2023-04-24T06:14:45;97687.30;;;17.15;45.10
66801;BME280;53703;50.326;19.122;2023-04-24T06:17:39;97688.56;;;16.98;42.64
66801;BME280;53703;50.326;19.122;2023-04-24T06:20:33;97683.13;;;17.10;39.78
66801;BME280;53703;50.326;19.122;2023-04-24T06:23:26;97680.63;;;17.40;42.36
66801;BME280;53703;50.326;19.122;2023-04-24T06:26:20;97680.31;;;17.70;41.20
66801;BME280;53703;50.326;19.122;2023-04-24T06:29:14;97677.28;;;17.78;40.84
66801;BME280;53703;50.326;19.122;2023-04-24T06:32:08;97673.61;;;17.81;40.74
66801;BME280;53703;50.326;19.122;2023-04-24T06:35:02;97676.28;;;17.86;38.53
66801;BME280;53703;50.326;19.122;2023-04-24T06:37:55;97673.48;;;17.62;36.77
66801;BME280;53703;50.326;19.122;2023-04-24T06:40:49;97670.79;;;17.83;36.82
66801;BME280;53703;50.326;19.122;2023-04-24T06:43:43;97665.63;;;18.32;37.22
66801;BME280;53703;50.326;19.122;2023-04-24T06:46:37;97668.59;;;18.49;36.03
66801;BME280;53703;50.326;19.122;2023-04-24T06:49:33;97667.19;;;18.57;36.82
66801;BME280;53703;50.326;19.122;2023-04-24T06:52:27;97666.52;;;18.62;37.55
66801;BME280;53703;50.326;19.122;2023-04-24T06:55:21;97664.84;;;18.67;35.84
66801;BME280;53703;50.326;19.122;2023-04-24T06:58:15;97666.17;;;18.80;35.30
66801;BME280;53703;50.326;19.122;2023-04-24T07:01:09;97666.50;;;18.73;35.19
66801;BME280;53703;50.326;19.122;2023-04-24T07:04:03;97665.49;;;18.84;35.39
66801;BME280;53703;50.326;19.122;2023-04-24T07:06:57;97664.36;;;18.89;36.13
66801;BME280;53703;50.326;19.122;2023-04-24T07:09:51;97659.34;;;18.83;35.63
66801;BME280;53703;50.326;19.122;2023-04-24T07:12:46;97653.02;;;18.84;36.26
66801;BME280;53703;50.326;19.122;2023-04-24T07:15:40;97653.92;;;18.96;35.04
66801;BME280;53703;50.326;19.122;2023-04-24T07:18:35;97647.80;;;18.99;35.42
66801;BME280;53703;50.326;19.122;2023-04-24T07:21:29;97651.69;;;19.01;34.74
66801;BME280;53703;50.326;19.122;2023-04-24T07:24:24;97648.79;;;18.97;35.61
66801;BME280;53703;50.326;19.122;2023-04-24T07:27:18;97649.60;;;18.90;37.25
66801;BME280;53703;50.326;19.122;2023-04-24T07:30:13;97647.56;;;18.91;36.90
66801;BME280;53703;50.326;19.122;2023-04-24T07:33:07;97648.18;;;18.90;37.17
66801;BME280;53703;50.326;19.122;2023-04-24T07:36:01;97645.92;;;19.02;36.27
66801;BME280;53703;50.326;19.122;2023-04-24T07:38:55;97642.74;;;19.00;35.53
66801;BME280;53703;50.326;19.122;2023-04-24T07:41:49;97643.23;;;19.01;36.01
66801;BME280;53703;50.326;19.122;2023-04-24T07:44:43;97640.56;;;19.02;35.96
66801;BME280;53703;50.326;19.122;2023-04-24T07:47:39;97640.16;;;18.95;38.12
66801;BME280;53703;50.326;19.122;2023-04-24T07:50:33;97639.80;;;18.89;38.14
66801;BME280;53703;50.326;19.122;2023-04-24T07:53:28;97637.11;;;18.89;37.43
66801;BME280;53703;50.326;19.122;2023-04-24T07:56:12;97638.00;;;19.07;35.53
66801;BME280;53703;50.326;19.122;2023-04-24T07:59:06;97633.27;;;19.15;35.69
66801;BME280;53703;50.326;19.122;2023-04-24T08:02:00;97631.48;;;19.11;35.48
66801;BME280;53703;50.326;19.122;2023-04-24T08:04:54;97630.23;;;19.13;34.55
66801;BME280;53703;50.326;19.122;2023-04-24T08:07:51;97627.16;;;18.89;33.20
66801;BME280;53703;50.326;19.122;2023-04-24T08:10:45;97622.50;;;18.89;32.70
66801;BME280;53703;50.326;19.122;2023-04-24T08:13:39;97622.52;;;18.92;33.89
66801;BME280;53703;50.326;19.122;2023-04-24T08:16:33;97622.09;;;18.88;34.60
66801;BME280;53703;50.326;19.122;2023-04-24T08:19:27;97621.19;;;18.92;33.41
66801;BME280;53703;50.326;19.122;2023-04-24T08:22:21;97613.14;;;19.10;32.96
66801;BME280;53703;50.326;19.122;2023-04-24T08:25:15;97614.02;;;18.62;35.00
66801;BME280;53703;50.326;19.122;2023-04-24T08:28:10;97611.13;;;18.49;33.99
66801;BME280;53703;50.326;19.122;2023-04-24T08:31:06;97608.63;;;18.44;34.21
66801;BME280;53703;50.326;19.122;2023-04-24T08:34:00;97606.30;;;18.40;33.92
66801;BME280;53703;50.326;19.122;2023-04-24T08:36:54;97602.92;;;18.90;32.34
66801;BME280;53703;50.326;19.122;2023-04-24T08:39:48;97606.64;;;19.18;32.60
66801;BME280;53703;50.326;19.122;2023-04-24T08:42:43;97603.20;;;19.20;32.18
66801;BME280;53703;50.326;19.122;2023-04-24T08:45:37;97601.20;;;19.19;32.38
66801;BME280;53703;50.326;19.122;2023-04-24T08:48:23;97600.41;;;19.00;33.19
66801;BME280;53703;50.326;19.122;2023-04-24T08:51:25;97598.89;;;18.57;33.75
66801;BME280;53703;50.326;19.122;2023-04-24T08:54:20;97596.46;;;18.84;34.53
66801;BME280;53703;50.326;19.122;2023-04-24T08:57:15;97599.40;;;18.76;35.15
66801;BME280;53703;50.326;19.122;2023-04-24T09:00:02;97593.74;;;18.87;34.95
66801;BME280;53703;50.326;19.122;2023-04-24T09:02:56;97595.30;;;18.95;35.06
66801;BME280;53703;50.326;19.122;2023-04-24T09:05:51;97591.20;;;19.03;35.05
66801;BME280;53703;50.326;19.122;2023-04-24T09:08:47;97591.13;;;19.12;35.19
66801;BME280;53703;50.326;19.122;2023-04-24T09:11:43;97590.27;;;19.05;35.68
66801;BME280;53703;50.326;19.122;2023-04-24T09:14:37;97588.71;;;19.00;35.84
66801;BME280;53703;50.326;19.122;2023-04-24T09:17:35;97588.17;;;18.84;35.77
66801;BME280;53703;50.326;19.122;2023-04-24T09:20:29;97587.08;;;18.76;36.23
66801;BME280;53703;50.326;19.122;2023-04-24T09:23:24;97582.27;;;18.86;36.24
66801;BME280;53703;50.326;19.122;2023-04-24T09:26:20;97583.96;;;18.90;36.26
66801;BME280;53703;50.326;19.122;2023-04-24T09:29:18;97582.32;;;18.91;36.45
66801;BME280;53703;50.326;19.122;2023-04-24T09:32:25;97580.13;;;18.94;36.50
66801;BME280;53703;50.326;19.122;2023-04-24T09:35:20;97570.41;;;18.86;36.86
66801;BME280;53703;50.326;19.122;2023-04-24T09:38:14;97570.34;;;19.03;36.31
66801;BME280;53703;50.326;19.122;2023-04-24T09:41:12;97569.54;;;19.32;35.79
66801;BME280;53703;50.326;19.122;2023-04-24T09:44:16;97568.38;;;19.25;36.27
66801;BME280;53703;50.326;19.122;2023-04-24T09:47:10;97559.10;;;19.01;35.95
66801;BME280;53703;50.326;19.122;2023-04-24T09:50:27;97558.43;;;18.97;36.81
66801;BME280;53703;50.326;19.122;2023-04-24T09:53:25;97555.42;;;19.15;34.90
66801;BME280;53703;50.326;19.122;2023-04-24T09:56:19;97553.55;;;19.41;33.92
66801;BME280;53703;50.326;19.122;2023-04-24T09:59:13;97552.55;;;19.01;35.05
66801;BME280;53703;50.326;19.122;2023-04-24T10:02:18;97548.81;;;18.98;34.61
66801;BME280;53703;50.326;19.122;2023-04-24T10:05:13;97552.04;;;19.40;32.68
66801;BME280;53703;50.326;19.122;2023-04-24T10:08:10;97543.69;;;19.34;33.10
66801;BME280;53703;50.326;19.122;2023-04-24T10:11:04;97540.52;;;19.43;31.75
66801;BME280;53703;50.326;19.122;2023-04-24T10:13:58;97532.70;;;19.09;33.15
66801;BME280;53703;50.326;19.122;2023-04-24T10:16:54;97538.10;;;19.49;32.05
66801;BME280;53703;50.326;19.122;2023-04-24T10:19:49;97541.98;;;19.13;32.85
66801;BME280;53703;50.326;19.122;2023-04-24T10:22:43;97537.77;;;19.22;32.86
66801;BME280;53703;50.326;19.122;2023-04-24T10:25:41;97540.05;;;19.58;31.77
66801;BME280;53703;50.326;19.122;2023-04-24T10:28:37;97538.79;;;19.76;32.04
66801;BME280;53703;50.326;19.122;2023-04-24T10:31:33;97536.60;;;19.85;31.14
66801;BME280;53703;50.326;19.122;2023-04-24T10:34:27;97535.57;;;19.24;33.23
66801;BME280;53703;50.326;19.122;2023-04-24T10:37:22;97540.48;;;19.15;33.48
66801;BME280;53703;50.326;19.122;2023-04-24T10:40:27;97537.08;;;19.24;33.83
66801;BME280;53703;50.326;19.122;2023-04-24T10:43:22;97535.31;;;19.20;34.07
66801;BME280;53703;50.326;19.122;2023-04-24T10:46:21;97530.08;;;19.29;34.29
66801;BME280;53703;50.326;19.122;2023-04-24T10:49:15;97529.95;;;19.36;34.27
66801;BME280;53703;50.326;19.122;2023-04-24T10:52:10;97530.35;;;19.36;34.59
66801;BME280;53703;50.326;19.122;2023-04-24T10:55:07;97529.46;;;19.46;34.96
66801;BME280;53703;50.326;19.122;2023-04-24T10:58:07;97523.21;;;19.31;35.58
66801;BME280;53703;50.326;19.122;2023-04-24T11:01:01;97521.71;;;19.32;36.02
66801;BME280;53703;50.326;19.122;2023-04-24T11:03:58;97522.71;;;19.39;35.87
66801;BME280;53703;50.326;19.122;2023-04-24T11:06:53;97517.50;;;19.40;35.32
66801;BME280;53703;50.326;19.122;2023-04-24T11:09:47;97521.23;;;19.42;36.09
66801;BME280;53703;50.326;19.122;2023-04-24T11:13:03;97518.09;;;19.34;35.46
66801;BME280;53703;50.326;19.122;2023-04-24T11:16:24;97520.03;;;19.57;32.23
66801;BME280;53703;50.326;19.122;2023-04-24T11:19:28;97523.45;;;19.43;33.72
66801;BME280;53703;50.326;19.122;2023-04-24T11:22:24;97524.28;;;19.53;33.75
66801;BME280;53703;50.326;19.122;2023-04-24T11:25:19;97528.18;;;19.44;34.12
66801;BME280;53703;50.326;19.122;2023-04-24T11:28:17;97529.20;;;19.28;34.51
66801;BME280;53703;50.326;19.122;2023-04-24T11:31:37;97529.80;;;19.21;34.66
66801;BME280;53703;50.326;19.122;2023-04-24T11:34:33;97539.04;;;19.11;35.24
66801;BME280;53703;50.326;19.122;2023-04-24T11:37:28;97543.21;;;19.11;35.11
66801;BME280;53703;50.326;19.122;2023-04-24T11:40:24;97545.27;;;19.79;34.26
66801;BME280;53703;50.326;19.122;2023-04-24T11:43:19;97555.66;;;19.38;34.94
66801;BME280;53703;50.326;19.122;2023-04-24T11:46:13;97558.10;;;19.25;35.80
66801;BME280;53703;50.326;19.122;2023-04-24T11:49:10;97554.81;;;19.08;36.20
66801;BME280;53703;50.326;19.122;2023-04-24T11:52:06;97553.34;;;19.00;38.67
66801;BME280;53703;50.326;19.122;2023-04-24T11:55:00;97551.46;;;19.04;36.97
66801;BME280;53703;50.326;19.122;2023-04-24T11:57:56;97550.05;;;19.06;36.69
66801;BME280;53703;50.326;19.122;2023-04-24T12:01:11;97543.83;;;18.99;37.08
66801;BME280;53703;50.326;19.122;2023-04-24T12:04:05;97539.97;;;19.07;37.14
66801;BME280;53703;50.326;19.122;2023-04-24T12:07:05;97538.36;;;18.96;37.51
66801;BME280;53703;50.326;19.122;2023-04-24T12:10:01;97537.66;;;18.98;37.42
66801;BME280;53703;50.326;19.122;2023-04-24T12:12:57;97532.95;;;18.92;37.77
66801;BME280;53703;50.326;19.122;2023-04-24T12:15:53;97530.21;;;19.05;37.37
66801;BME280;53703;50.326;19.122;2023-04-24T12:18:48;97528.56;;;19.15;37.28
66801;BME280;53703;50.326;19.122;2023-04-24T12:21:42;97532.48;;;19.09;37.59
66801;BME280;53703;50.326;19.122;2023-04-24T12:24:55;97531.51;;;18.99;38.02
66801;BME280;53703;50.326;19.122;2023-04-24T12:28:18;97528.23;;;18.93;38.11
66801;BME280;53703;50.326;19.122;2023-04-24T12:31:12;97521.52;;;18.96;38.28
66801;BME280;53703;50.326;19.122;2023-04-24T12:34:19;97523.14;;;18.99;38.13
66801;BME280;53703;50.326;19.122;2023-04-24T12:37:14;97522.56;;;18.96;38.24
66801;BME280;53703;50.326;19.122;2023-04-24T12:40:11;97520.32;;;19.01;38.33
66801;BME280;53703;50.326;19.122;2023-04-24T12:43:16;97528.52;;;18.99;38.44
66801;BME280;53703;50.326;19.122;2023-04-24T12:46:10;97525.85;;;18.91;38.64
66801;BME280;53703;50.326;19.122;2023-04-24T12:49:07;97529.02;;;18.93;38.65
66801;BME280;53703;50.326;19.122;2023-04-24T12:52:13;97530.54;;;18.96;39.01
66801;BME280;53703;50.326;19.122;2023-04-24T12:55:09;97533.86;;;18.96;39.36
66801;BME280;53703;50.326;19.122;2023-04-24T12:58:04;97535.33;;;18.92;39.54
66801;BME280;53703;50.326;19.122;2023-04-24T13:00:58;97533.64;;;18.88;39.57
66801;BME280;53703;50.326;19.122;2023-04-24T13:03:53;97530.96;;;19.00;39.27
66801;BME280;53703;50.326;19.122;2023-04-24T13:06:48;97529.70;;;19.00;39.62
66801;BME280;53703;50.326;19.122;2023-04-24T13:09:42;97529.86;;;19.00;40.94
66801;BME280;53703;50.326;19.122;2023-04-24T13:12:36;97524.27;;;19.11;39.51
66801;BME280;53703;50.326;19.122;2023-04-24T13:15:30;97521.72;;;19.00;39.83
66801;BME280;53703;50.326;19.122;2023-04-24T13:18:24;97519.44;;;19.01;39.79
66801;BME280;53703;50.326;19.122;2023-04-24T13:21:18;97518.90;;;19.02;40.67
66801;BME280;53703;50.326;19.122;2023-04-24T13:24:12;97515.60;;;19.14;40.24
66801;BME280;53703;50.326;19.122;2023-04-24T13:27:08;97517.31;;;19.10;40.97
66801;BME280;53703;50.326;19.122;2023-04-24T13:30:03;97516.96;;;19.06;41.11
66801;BME280;53703;50.326;19.122;2023-04-24T13:32:57;97519.91;;;19.09;41.25
66801;BME280;53703;50.326;19.122;2023-04-24T13:35:51;97520.61;;;19.06;42.19
66801;BME280;53703;50.326;19.122;2023-04-24T13:38:45;97513.58;;;18.99;41.66
66801;BME280;53703;50.326;19.122;2023-04-24T13:41:39;97513.12;;;19.01;41.26
66801;BME280;53703;50.326;19.122;2023-04-24T13:44:33;97514.66;;;19.16;41.50
66801;BME280;53703;50.326;19.122;2023-04-24T13:47:27;97513.27;;;19.07;41.36
66801;BME280;53703;50.326;19.122;2023-04-24T13:50:22;97516.23;;;18.97;41.61
66801;BME280;53703;50.326;19.122;2023-04-24T13:53:16;97515.23;;;18.87;41.70
66801;BME280;53703;50.326;19.122;2023-04-24T13:56:10;97516.42;;;18.79;42.71
66801;BME280;53703;50.326;19.122;2023-04-24T13:59:06;97522.08;;;18.83;43.17
66801;BME280;53703;50.326;19.122;2023-04-24T14:02:00;97522.86;;;18.85;43.04
66801;BME280;53703;50.326;19.122;2023-04-24T14:04:54;97522.59;;;18.79;42.91
66801;BME280;53703;50.326;19.122;2023-04-24T14:07:48;97522.75;;;18.79;43.78
66801;BME280;53703;50.326;19.122;2023-04-24T14:10:42;97519.77;;;18.75;43.65
66801;BME280;53703;50.326;19.122;2023-04-24T14:13:37;97520.48;;;18.73;43.14
66801;BME280;53703;50.326;19.122;2023-04-24T14:16:31;97519.15;;;18.74;43.37
66801;BME280;53703;50.326;19.122;2023-04-24T14:19:25;97523.86;;;18.70;42.98
66801;BME280;53703;50.326;19.122;2023-04-24T14:22:19;97523.46;;;18.70;43.36
66801;BME280;53703;50.326;19.122;2023-04-24T14:25:13;97527.95;;;18.69;43.62
66801;BME280;53703;50.326;19.122;2023-04-24T14:28:08;97525.52;;;18.71;44.17
66801;BME280;53703;50.326;19.122;2023-04-24T14:31:02;97526.63;;;18.71;44.92
66801;BME280;53703;50.326;19.122;2023-04-24T14:33:56;97529.13;;;18.68;45.38
66801;BME280;53703;50.326;19.122;2023-04-24T14:36:51;97530.73;;;18.80;45.27
66801;BME280;53703;50.326;19.122;2023-04-24T14:39:46;97528.86;;;18.74;45.26
66801;BME280;53703;50.326;19.122;2023-04-24T14:42:58;97530.56;;;18.79;44.50
66801;BME280;53703;50.326;19.122;2023-04-24T14:45:52;97531.20;;;18.70;45.68
66801;BME280;53703;50.326;19.122;2023-04-24T14:48:46;97532.42;;;18.84;44.75
66801;BME280;53703;50.326;19.122;2023-04-24T14:51:40;97537.04;;;18.98;44.99
66801;BME280;53703;50.326;19.122;2023-04-24T14:54:35;97533.35;;;18.92;45.26
66801;BME280;53703;50.326;19.122;2023-04-24T14:57:30;97532.41;;;18.82;44.88
66801;BME280;53703;50.326;19.122;2023-04-24T15:00:24;97532.03;;;18.66;45.58
66801;BME280;53703;50.326;19.122;2023-04-24T15:03:19;97533.17;;;18.62;45.54
66801;BME280;53703;50.326;19.122;2023-04-24T15:06:14;97535.31;;;18.62;45.73
66801;BME280;53703;50.326;19.122;2023-04-24T15:09:08;97535.48;;;18.72;45.58
66801;BME280;53703;50.326;19.122;2023-04-24T15:12:02;97536.46;;;18.67;45.68
66801;BME280;53703;50.326;19.122;2023-04-24T15:14:57;97534.27;;;18.69;45.83